Capitol Logistics 3163

Operating for MAA



SPJC
Jorge Chávez International Airport
Lima, PE
MMMX
Benito Juárez International Airport
Mexico City, MX

Activity Log

Date Flight Route Aircraft Duration
No Flights Yet

Route Details

Aircraft Information
Group: Large Widebodies
Types: B744,MD11
Route Data
Demand: V
Distance: 2295nm
Duration: 5h 75m
Recm'd Route: ATAT2F ATATU UV1 TAL UM542 ATENO PUGSU EKEDA LIXAS UZ512 RADIM UL318 IZT UT157 LARLO LARL1B
Origin Wx: SPJC 272100Z 16014KT 9999 FEW027 18/12 Q1013 NOSIG RMK PP000
Dest. Wx: MMMX 272046Z 34017KT 8SM SKC 27/M03 A3025 NOSIG RMK SLP041 57018 902 HZY ISOL CU
Notes:

Financial History
Total Freight: 0lbs
Average Load: 0lbs/flt
Fuel Used: 0lbs
Avg. Fuel Used: 0lbs/flt
Fuel Expense: $0
Avg. Fuel Expense: $0
Avg. Fuel Cost: $0/lbs
Total Gross Income: $0
Pilot Pay: $0
Total Expenses: $0
Total Revenue: $0
Average Revenue: $0